• Join FlightAware (Why Join?)
  • Login
  • US Flag 
10:48AM EDT


 

Airport Tracker/Info


-or-


 

Live Flight TrackerFlight Track Log ✈ N1926A ✈ 16-Sep-2013 ✈ KVBT - KFTW

Flight Track Log - Related Links

Times and Time Zones

All times are in EDT time to prevent confusion due to time zone crossing. See the N1926A flight status page for this flight to view local times or setup timezone preferences in your user account.

Time Position Orientation Groundspeed Altitude Reporting Facility
EDT Latitude Longitude Course Direction KTS MPH feet Rate Location/Type
01:45PM 36.1292 -93.9031 217° Southwest 275 316 12,000  Level Memphis Center
01:46PM 36.0467 -94.4990 217° Southwest  Level Estimated
01:46PM 36.1000 -93.8300 116° Southeast 241 277 13,500  Level Memphis Center
01:47PM 36.0767 -93.7622 113° Southeast 221 254 15,100 1,560 Climbing Memphis Center
01:48PM 36.0494 -93.6969 117° Southeast 216 249 16,700 1,320 Climbing Memphis Center
01:49PM 36.0219 -93.6317 117° Southeast 216 249 17,800 1,140 Climbing Memphis Center
01:50PM 35.9944 -93.5639 117° Southeast 216 249 19,000 1,020 Climbing Memphis Center
01:51PM 35.9669 -93.5011 118° Southeast 216 249 19,900 900 Climbing Memphis Center
01:52PM 35.9394 -93.4336 117° Southeast 211 243 20,800 900 Climbing Memphis Center
01:53PM 35.9119 -93.3658 117° Southeast 217 250 21,800 900 Climbing Memphis Center
01:54PM 35.8844 -93.2931 115° Southeast 217 250 22,700 900 Climbing Memphis Center
01:55PM 35.8547 -93.2256 118° Southeast 223 257 23,600 600 Climbing Memphis Center
01:56PM 35.8231 -93.1503 117° Southeast 223 257 24,000 180 Climbing Memphis Center
01:57PM 35.7892 -93.0722 118° Southeast 238 274 24,000  Level Memphis Center
01:58PM 35.7536 -92.9867 117° Southeast 258 297 24,000  Level Memphis Center
01:59PM 35.7200 -92.8986 115° Southeast 270 311 24,000  Level Memphis Center
02:00PM 35.6861 -92.8108 115° Southeast 276 318 24,000  Level Memphis Center
02:01PM 35.6542 -92.7383 118° Southeast 277 319 24,000  Level Memphis Center
02:02PM 35.6167 -92.6325 114° Southeast 282 325 24,000  Level Memphis Center
02:03PM 35.5786 -92.5472 119° Southeast 282 325 24,000  Level Memphis Center
02:04PM 35.5403 -92.4594 118° Southeast 287 330 24,000  Level Memphis Center
02:05PM 35.5042 -92.3719 117° Southeast 287 330 24,000  Level Memphis Center
02:06PM 35.4681 -92.2842 117° Southeast 287 330 24,000  Level Memphis Center
02:07PM 35.4297 -92.1967 118° Southeast 287 330 24,000  Level Memphis Center
02:08PM 35.3914 -92.1094 118° Southeast 287 330 24,000  Level Memphis Center
02:10PM 35.3167 -91.9297 117° Southeast 287 330 24,000  Level Memphis Center
02:11PM 35.2803 -91.8375 116° Southeast 287 330 24,000  Level Memphis Center
02:12PM 35.2417 -91.7503 118° Southeast 287 330 24,000  Level Memphis Center
02:13PM 35.2008 -91.6606 119° Southeast 287 330 24,000  Level Memphis Center
02:15PM 35.1328 -91.5035 118° Southeast  Level FlightAware Approximate
02:16PM 35.0908 -91.3875 118° Southeast 287 330 24,000  Level Memphis Center
02:17PM 35.0517 -91.3033 120° Southeast 292 336 24,000  Level Memphis Center
02:18PM 35.0108 -91.2142 119° Southeast 292 336 24,000  Level Memphis Center
02:19PM 34.9717 -91.1275 119° Southeast 292 336 24,000  Level Memphis Center
02:20PM 34.9347 -91.0386 117° Southeast 292 336 24,000  Level Memphis Center
02:21PM 34.8953 -90.9494 118° Southeast 292 336 24,000  Level Memphis Center
02:22PM 34.8583 -90.8633 118° Southeast 285 328 24,000  Level Memphis Center
02:23PM 34.8189 -90.7744 118° Southeast 291 335 24,000  Level Memphis Center
02:24PM 34.7858 -90.6958 117° Southeast 291 335 24,000  Level Memphis Center
02:25PM 34.7464 -90.6072 118° Southeast 291 335 24,000  Level Memphis Center
02:26PM 34.7069 -90.5189 118° Southeast 286 329 24,000  Level Memphis Center
02:27PM 34.6672 -90.4278 118° Southeast 291 335 24,000  Level Memphis Center
02:28PM 34.6275 -90.3419 119° Southeast 291 335 24,000  Level Memphis Center
02:29PM 34.5881 -90.2536 118° Southeast 291 335 24,000  Level Memphis Center
02:30PM 34.5481 -90.1681 120° Southeast 291 335 24,000  Level Memphis Center
02:31PM 34.5083 -90.0800 119° Southeast 291 335 24,000  Level Memphis Center
02:32PM 34.4686 -89.9919 119° Southeast 291 335 24,000  Level Memphis Center
02:33PM 34.4264 -89.8989 119° Southeast 291 335 24,000  Level Memphis Center
02:34PM 34.3864 -89.8111 119° Southeast 291 335 24,000  Level Memphis Center
02:35PM 34.3483 -89.7256 118° Southeast 291 335 24,000  Level Memphis Center
02:36PM 34.3103 -89.6381 118° Southeast 291 335 24,000  Level Memphis Center
02:37PM 34.2722 -89.5503 118° Southeast 291 335 24,000  Level Memphis Center
02:38PM 34.2342 -89.4653 118° Southeast 291 335 24,000  Level Memphis Center
02:39PM 34.1919 -89.3853 123° Southeast 285 328 24,000  Level Memphis Center
02:40PM 34.1514 -89.3006 120° Southeast 280 322 24,000  Level Memphis Center
02:41PM 34.1131 -89.2156 119° Southeast 280 322 24,000  Level Memphis Center
02:42PM 34.0747 -89.1308 119° Southeast 287 330 24,000  Level Memphis Center
02:43PM 34.0425 -89.0461 115° Southeast 280 322 24,000  Level Memphis Center
02:44PM 34.0042 -88.9589 118° Southeast 280 322 24,000  Level Memphis Center
02:45PM 33.9697 -88.8844 119° Southeast 280 322 24,000  Level Memphis Center
02:46PM 33.9314 -88.8025 119° Southeast 280 322 24,000  Level Memphis Center
02:47PM 33.8906 -88.7206 121° Southeast 286 329 24,000  Level Memphis Center
02:48PM 33.8497 -88.6364 120° Southeast 286 329 24,000  Level Memphis Center
02:49PM 33.8111 -88.5547 120° Southeast 286 329 24,000  Level Memphis Center
02:50PM 33.7722 -88.4706 119° Southeast 286 329 24,000  Level Memphis Center
02:51PM 33.7333 -88.3864 119° Southeast 286 329 24,000  Level Memphis Center
02:52PM 33.6944 -88.3025 119° Southeast 286 329 24,000  Level Memphis Center
02:53PM 33.6533 -88.2186 120° Southeast 286 329 24,000  Level Memphis Center
02:54PM 33.6144 -88.1372 120° Southeast 286 329 24,000  Level Memphis Center
02:56PM 33.5278 -87.9436 118° Southeast 281 323 24,000  Level Atlanta Center
02:57PM 33.4825 -87.8544 121° Southeast 281 323 24,000  Level Atlanta Center
02:58PM 33.4433 -87.7706 119° Southeast 281 323 24,000  Level Atlanta Center
02:59PM 33.4061 -87.6892 119° Southeast 286 329 24,000  Level Atlanta Center
03:00PM 33.3647 -87.6056 121° Southeast 286 329 24,000  Level Atlanta Center
03:01PM 33.3256 -87.5219 119° Southeast 286 329 24,000  Level Atlanta Center
03:02PM 33.2839 -87.4406 121° Southeast 286 329 24,000 -480 Level Atlanta Center
03:03PM 33.2406 -87.3519 120° Southeast 291 335 23,100 -900 Descending Atlanta Center
03:04PM 33.1969 -87.2611 120° Southeast 297 342 22,300 -1,200 Descending Atlanta Center
03:05PM 33.1533 -87.1675 119° Southeast 312 359 20,800 -1,380 Descending Atlanta Center
03:06PM 33.1058 -87.0717 121° Southeast 325 374 19,600 -1,380 Descending Atlanta Center
03:07PM 33.0683 -86.9836 117° Southeast 325 374 18,100 -1,800 Descending Atlanta Center
03:08PM 33.0203 -86.8903 122° Southeast 325 374 16,100 -1,860 Descending Atlanta Center
03:09PM 32.9744 -86.7947 120° Southeast 331 381 14,400 -1,800 Descending Atlanta Center
03:10PM 32.9306 -86.7042 120° Southeast 325 374 12,500 -1,860 Descending Atlanta Center
03:11PM 32.8844 -86.6189 123° Southeast 325 374 10,700 -1,920 Descending Atlanta Center
03:13PM 32.8000 -86.4533 121° Southeast 304 350 6,900 -1,980 Descending Atlanta Center
03:14PM 32.7600 -86.3706 120° Southeast 298 343 4,900 -1,500 Descending Atlanta Center
03:15PM 32.7194 -86.2931 122° Southeast 292 336 4,000 -480 Descending Atlanta Center
03:16PM 32.6772 -86.2081 121° Southeast 284 327 4,000 6,660 Level Atlanta Center
03:18PM 32.5883 -86.0406 122° Southeast 284 327 24,000 9,960 Climbing Atlanta Center
03:20PM 32.5245 -85.9157 121° Southeast  Level FlightAware Approximate
03:27PM 32.5000 -85.8667 121° Southeast  Level FlightAware Approximate
03:28PM 32.5065 -85.9550 121° Southeast  Level Estimated
03:29PM 32.5000 -85.8667 121° Southeast  Level FlightAware Approximate
03:30PM 32.5065 -85.9550 121° Southeast  Level Estimated
03:31PM 32.5000 -85.8667 121° Southeast  Level FlightAware Approximate
03:32PM 32.5065 -85.9550 121° Southeast  Level Estimated
03:33PM 32.5000 -85.8667 121° Southeast  Level FlightAware Approximate
03:34PM 32.5065 -85.9550 121° Southeast  Level Estimated
03:35PM 32.5000 -85.8667 121° Southeast  Level FlightAware Approximate
03:36PM 32.5065 -85.9550 121° Southeast  Level Estimated
03:37PM 32.5000 -85.8667 121° Southeast  Level FlightAware Approximate
03:38PM 32.5065 -85.9550 121° Southeast  Level Estimated
03:39PM 32.5000 -85.8667 121° Southeast  Level FlightAware Approximate
03:40PM 32.5065 -85.9550 121° Southeast  Level Estimated
03:41PM 32.5000 -85.8667 121° Southeast  Level FlightAware Approximate